createdAt,value
2023-04-17T00:00:32.133Z,32.72
2023-04-17T00:03:01.459Z,30.10
2023-04-17T00:05:29.262Z,30.98
2023-04-17T00:07:57.148Z,33.13
2023-04-17T00:10:24.050Z,32.05
2023-04-17T00:12:51.229Z,30.65
2023-04-17T00:15:17.996Z,29.80
2023-04-17T00:17:44.928Z,29.88
2023-04-17T00:20:12.420Z,30.58
2023-04-17T00:22:39.722Z,32.95
2023-04-17T00:25:07.479Z,31.60
2023-04-17T00:27:34.288Z,31.33
2023-04-17T00:30:01.636Z,31.35
2023-04-17T00:32:28.591Z,32.35
2023-04-17T00:34:55.986Z,31.60
2023-04-17T00:37:22.901Z,32.40
2023-04-17T00:39:49.722Z,32.15
2023-04-17T00:42:16.542Z,32.53
2023-04-17T00:44:43.354Z,33.63
2023-04-17T00:47:10.310Z,33.38
2023-04-17T00:49:37.301Z,32.33
2023-04-17T00:52:04.684Z,32.88
2023-04-17T00:54:32.157Z,34.53
2023-04-17T00:56:59.910Z,32.67
2023-04-17T00:59:28.321Z,32.58
2023-04-17T01:01:55.463Z,30.98
2023-04-17T01:04:22.429Z,31.00
2023-04-17T01:06:49.298Z,31.63
2023-04-17T01:09:16.181Z,29.88
2023-04-17T01:11:43.038Z,29.30
2023-04-17T01:14:10.136Z,30.27
2023-04-17T01:16:39.298Z,29.83
2023-04-17T01:19:07.250Z,28.90
2023-04-17T01:21:34.085Z,28.33
2023-04-17T01:24:03.376Z,29.73
2023-04-17T01:26:32.685Z,30.27
2023-04-17T01:29:00.289Z,28.77
2023-04-17T01:31:29.069Z,30.38
2023-04-17T01:33:56.017Z,30.38
2023-04-17T01:36:22.812Z,30.73
2023-04-17T01:38:49.718Z,30.02
2023-04-17T01:41:16.560Z,31.25
2023-04-17T01:43:45.868Z,30.83
2023-04-17T01:46:13.387Z,30.27
2023-04-17T01:48:40.779Z,30.80
2023-04-17T01:51:07.668Z,31.23
2023-04-17T01:53:35.085Z,31.48
2023-04-17T01:56:02.088Z,31.40
2023-04-17T01:58:29.383Z,32.15
2023-04-17T02:00:56.323Z,32.80
2023-04-17T02:03:24.651Z,32.47
2023-04-17T02:05:53.492Z,32.42
2023-04-17T02:08:20.626Z,31.83
2023-04-17T02:10:47.499Z,32.85
2023-04-17T02:13:14.496Z,32.97
2023-04-17T02:15:41.614Z,33.83
2023-04-17T02:18:09.456Z,32.95
2023-04-17T02:20:37.490Z,33.53
2023-04-17T02:23:06.899Z,36.17
2023-04-17T02:25:34.493Z,37.33
2023-04-17T02:28:01.578Z,37.28
2023-04-17T02:30:28.810Z,37.67
2023-04-17T02:32:56.244Z,37.10
2023-04-17T02:35:29.204Z,40.75
2023-04-17T02:37:56.079Z,38.15
2023-04-17T02:40:23.110Z,39.40
2023-04-17T02:42:49.949Z,37.15
2023-04-17T02:45:16.734Z,35.70
2023-04-17T02:47:43.563Z,32.85
2023-04-17T02:50:11.196Z,30.90
2023-04-17T02:52:38.077Z,28.95
2023-04-17T02:55:05.858Z,30.23
2023-04-17T02:57:32.985Z,31.35
2023-04-17T03:00:01.568Z,30.75
2023-04-17T03:02:30.704Z,31.20
2023-04-17T03:04:57.745Z,33.25
2023-04-17T03:07:27.481Z,32.08
2023-04-17T03:09:54.341Z,32.03
2023-04-17T03:12:21.155Z,33.55
2023-04-17T03:14:47.981Z,33.13
2023-04-17T03:17:15.560Z,32.72
2023-04-17T03:19:42.503Z,31.67
2023-04-17T03:22:10.041Z,33.00
2023-04-17T03:24:38.164Z,34.72
2023-04-17T03:27:05.030Z,34.05
2023-04-17T03:29:31.923Z,32.90
2023-04-17T03:31:58.759Z,32.45
2023-04-17T03:34:26.245Z,34.53
2023-04-17T03:36:53.041Z,35.13
2023-04-17T03:39:19.894Z,33.85
2023-04-17T03:41:47.154Z,36.30
2023-04-17T03:44:14.009Z,35.08
2023-04-17T03:46:40.863Z,35.88
2023-04-17T03:49:07.669Z,34.53
2023-04-17T03:51:34.607Z,34.05
2023-04-17T03:54:01.474Z,34.30
2023-04-17T03:56:28.370Z,34.50
2023-04-17T03:58:55.203Z,35.28
2023-04-17T04:01:22.444Z,34.35
2023-04-17T04:03:49.601Z,35.55
2023-04-17T04:06:20.317Z,37.28
2023-04-17T04:08:47.324Z,36.40
2023-04-17T04:11:14.128Z,38.60
2023-04-17T04:13:41.141Z,36.05
2023-04-17T04:16:08.423Z,37.05
2023-04-17T04:18:36.585Z,36.88
2023-04-17T04:21:03.538Z,36.33
2023-04-17T04:23:30.713Z,36.05
2023-04-17T04:25:58.006Z,37.08
2023-04-17T04:28:28.074Z,33.83
2023-04-17T04:30:55.528Z,31.10
2023-04-17T04:33:22.368Z,29.33
2023-04-17T04:35:51.260Z,28.65
2023-04-17T04:38:18.662Z,28.23
2023-04-17T04:40:52.209Z,27.58
2023-04-17T04:43:21.670Z,27.23
2023-04-17T04:45:49.197Z,26.55
2023-04-17T04:48:16.023Z,25.90
2023-04-17T04:50:42.896Z,24.38
2023-04-17T04:53:09.676Z,22.70
2023-04-17T04:55:36.579Z,24.15
2023-04-17T04:58:03.369Z,24.88
2023-04-17T05:00:30.190Z,24.52
2023-04-17T05:02:57.203Z,26.30
2023-04-17T05:05:25.477Z,25.58
2023-04-17T05:07:54.978Z,25.05
2023-04-17T05:10:21.984Z,24.23
2023-04-17T05:12:48.740Z,24.55
2023-04-17T05:15:15.569Z,24.42
2023-04-17T05:17:42.576Z,24.17
2023-04-17T05:20:09.871Z,24.45
2023-04-17T05:22:36.722Z,24.60
2023-04-17T05:25:04.695Z,25.60
2023-04-17T05:27:31.499Z,25.38
2023-04-17T05:29:58.348Z,25.23
2023-04-17T05:32:25.576Z,25.40
2023-04-17T05:34:52.409Z,24.15
2023-04-17T05:37:19.217Z,24.67
2023-04-17T05:39:46.007Z,24.98
2023-04-17T05:42:12.885Z,24.02
2023-04-17T05:44:40.094Z,24.88
2023-04-17T05:47:07.137Z,24.73
2023-04-17T05:49:34.103Z,24.52
2023-04-17T05:52:00.994Z,25.42
2023-04-17T05:54:30.237Z,25.77
2023-04-17T05:56:57.188Z,23.90
2023-04-17T05:59:24.060Z,23.38
2023-04-17T06:01:51.188Z,24.15
2023-04-17T06:04:18.772Z,23.08
2023-04-17T06:06:46.075Z,23.05
2023-04-17T06:09:13.113Z,22.30
2023-04-17T06:11:40.108Z,23.75
2023-04-17T06:14:06.917Z,23.48
2023-04-17T06:16:33.967Z,25.10
2023-04-17T06:19:00.804Z,23.67
2023-04-17T06:21:28.056Z,24.30
2023-04-17T06:23:54.920Z,24.50
2023-04-17T06:26:21.758Z,24.52
2023-04-17T06:28:48.604Z,25.00
2023-04-17T06:31:15.709Z,23.98
2023-04-17T06:33:42.763Z,25.23
2023-04-17T06:36:09.771Z,24.95
2023-04-17T06:38:36.867Z,26.52
2023-04-17T06:41:03.898Z,26.63
2023-04-17T06:43:30.760Z,26.50
2023-04-17T06:45:57.674Z,26.65
2023-04-17T06:48:24.523Z,27.05
2023-04-17T06:50:51.387Z,26.48
2023-04-17T06:53:18.310Z,27.75
2023-04-17T06:55:45.270Z,25.23
2023-04-17T06:58:12.350Z,26.83
2023-04-17T07:00:39.236Z,26.17
2023-04-17T07:03:06.473Z,27.23
2023-04-17T07:05:33.409Z,27.00
2023-04-17T07:08:00.385Z,28.13
2023-04-17T07:10:27.230Z,28.38
2023-04-17T07:12:55.135Z,27.42
2023-04-17T07:15:22.108Z,27.63
2023-04-17T07:17:48.977Z,27.88
2023-04-17T07:20:15.866Z,27.70
2023-04-17T07:22:43.255Z,28.63
2023-04-17T07:25:10.140Z,26.83
2023-04-17T07:27:38.418Z,28.13
2023-04-17T07:30:08.983Z,28.00
2023-04-17T07:32:36.263Z,26.88
2023-04-17T07:35:04.472Z,26.42
2023-04-17T07:37:31.339Z,26.00
2023-04-17T07:39:58.153Z,24.15
2023-04-17T07:42:25.071Z,24.88
2023-04-17T07:44:52.004Z,25.92
2023-04-17T07:47:18.952Z,25.73
2023-04-17T07:49:49.176Z,24.92
2023-04-17T07:52:17.936Z,24.60
2023-04-17T07:54:45.049Z,24.98
2023-04-17T07:57:11.981Z,25.25
2023-04-17T07:59:38.909Z,24.17
2023-04-17T08:02:06.025Z,25.83
2023-04-17T08:04:33.396Z,26.90
2023-04-17T08:07:00.530Z,25.52
2023-04-17T08:09:27.600Z,26.90
2023-04-17T08:11:57.953Z,27.15
2023-04-17T08:14:25.507Z,27.38
2023-04-17T08:16:52.773Z,26.38
2023-04-17T08:19:19.668Z,28.45
2023-04-17T08:21:50.772Z,26.27
2023-04-17T08:24:19.696Z,28.33
2023-04-17T08:26:47.521Z,28.63
2023-04-17T08:29:14.670Z,26.95
2023-04-17T08:31:42.023Z,27.92
2023-04-17T08:34:14.498Z,27.65
2023-04-17T08:36:43.486Z,29.10
2023-04-17T08:39:12.276Z,28.10
2023-04-17T08:42:03.028Z,27.50
2023-04-17T08:44:30.612Z,28.00
2023-04-17T08:47:01.042Z,27.52
2023-04-17T08:49:34.490Z,26.88
2023-04-17T08:52:08.602Z,28.52
2023-04-17T08:54:36.618Z,27.67
2023-04-17T08:57:04.677Z,28.63
2023-04-17T08:59:32.661Z,28.33
2023-04-17T09:02:04.011Z,29.88
2023-04-17T09:04:41.981Z,29.95
2023-04-17T09:07:11.525Z,29.80
2023-04-17T09:09:55.743Z,27.48
2023-04-17T09:12:26.694Z,30.23
2023-04-17T09:14:53.668Z,31.38
2023-04-17T09:17:21.681Z,30.88
2023-04-17T09:20:09.496Z,29.73
2023-04-17T09:22:38.162Z,29.67
2023-04-17T09:25:05.428Z,29.08
2023-04-17T09:27:32.535Z,29.45
2023-04-17T09:29:59.477Z,31.13
2023-04-17T09:32:27.051Z,28.88
2023-04-17T09:34:55.225Z,27.23
2023-04-17T09:37:22.278Z,27.27
2023-04-17T09:40:00.149Z,27.08
2023-04-17T09:42:28.278Z,28.35
2023-04-17T09:44:55.408Z,26.73
2023-04-17T09:47:22.892Z,27.13
2023-04-17T09:49:52.809Z,25.95
2023-04-17T09:52:24.005Z,26.17
2023-04-17T09:54:53.991Z,25.17
2023-04-17T09:57:21.152Z,24.35
2023-04-17T09:59:49.083Z,24.30
2023-04-17T10:02:18.315Z,24.27
2023-04-17T10:04:46.696Z,25.02
2023-04-17T10:07:14.047Z,24.10
2023-04-17T10:09:42.471Z,24.98
2023-04-17T10:12:18.127Z,24.48
2023-04-17T10:14:51.758Z,25.63
2023-04-17T10:17:32.077Z,24.52
2023-04-17T10:20:20.213Z,25.33
2023-04-17T10:22:54.862Z,23.83
2023-04-17T10:25:26.511Z,24.20
2023-04-17T10:27:58.500Z,24.73
2023-04-17T10:30:51.423Z,24.48
2023-04-17T10:33:26.500Z,21.85
2023-04-17T10:35:54.022Z,24.52
2023-04-17T10:38:35.045Z,23.15
2023-04-17T10:41:09.637Z,22.60
2023-04-17T10:43:40.766Z,22.02
2023-04-17T10:46:14.998Z,22.10
2023-04-17T10:48:52.972Z,22.85
2023-04-17T10:51:29.106Z,22.80
2023-04-17T10:56:37.884Z,22.65
2023-04-17T10:59:05.957Z,23.60
2023-04-17T11:01:48.246Z,22.73
2023-04-17T11:04:31.034Z,22.35
2023-04-17T11:06:58.385Z,22.73
2023-04-17T11:09:27.948Z,24.25
2023-04-17T11:11:58.473Z,22.52
2023-04-17T11:14:26.530Z,23.13
2023-04-17T11:16:53.395Z,23.35
2023-04-17T11:19:26.653Z,22.00
2023-04-17T11:21:58.835Z,21.55
2023-04-17T11:24:30.369Z,21.30
2023-04-17T11:27:03.451Z,22.05
2023-04-17T11:29:30.481Z,22.27
2023-04-17T11:31:58.771Z,21.38
2023-04-17T11:34:26.761Z,23.00
2023-04-17T11:36:59.396Z,22.25
2023-04-17T11:39:29.809Z,22.85
2023-04-17T11:41:57.275Z,21.38
2023-04-17T11:44:24.845Z,21.98
2023-04-17T11:46:52.482Z,20.35
2023-04-17T11:49:26.705Z,20.77
2023-04-17T11:51:54.456Z,20.30
2023-04-17T11:54:34.957Z,19.17
2023-04-17T11:57:02.727Z,19.85
2023-04-17T11:59:31.361Z,19.90
2023-04-17T12:02:00.705Z,20.25
2023-04-17T12:04:29.587Z,19.55
2023-04-17T12:06:59.198Z,19.48
2023-04-17T12:09:31.464Z,20.17
2023-04-17T12:11:59.321Z,19.27
2023-04-17T12:14:26.728Z,20.20
2023-04-17T12:16:53.617Z,20.23
2023-04-17T12:19:20.514Z,19.27
2023-04-17T12:21:50.038Z,17.70
2023-04-17T12:24:18.184Z,18.20
2023-04-17T12:26:46.880Z,18.27
2023-04-17T12:29:14.853Z,17.08
2023-04-17T12:34:17.029Z,17.85
2023-04-17T12:36:43.923Z,17.33
2023-04-17T12:39:10.772Z,16.77
2023-04-17T12:41:37.686Z,18.08
2023-04-17T12:44:04.549Z,18.60
2023-04-17T12:46:31.542Z,18.70
2023-04-17T12:48:59.329Z,17.52
2023-04-17T12:51:29.745Z,17.15
2023-04-17T12:53:56.908Z,17.48
2023-04-17T12:56:23.948Z,17.75
2023-04-17T12:58:51.027Z,17.30
2023-04-17T13:01:17.841Z,16.52
2023-04-17T13:03:44.924Z,18.38
2023-04-17T13:06:12.391Z,16.33
2023-04-17T13:08:39.247Z,16.67
2023-04-17T13:11:06.103Z,16.05
2023-04-17T13:13:32.879Z,16.90
2023-04-17T13:15:59.659Z,17.10
2023-04-17T13:18:26.568Z,17.05
2023-04-17T13:20:53.352Z,17.02
2023-04-17T13:23:20.605Z,17.52
2023-04-17T13:25:47.495Z,15.60
2023-04-17T13:28:14.271Z,17.05
2023-04-17T13:30:41.238Z,16.23
2023-04-17T13:33:08.240Z,16.60
2023-04-17T13:35:35.203Z,15.95
2023-04-17T13:38:03.283Z,16.63
2023-04-17T13:40:30.844Z,16.05
2023-04-17T13:42:58.500Z,17.10
2023-04-17T13:45:25.421Z,18.00
2023-04-17T13:47:52.340Z,17.85
2023-04-17T13:50:19.688Z,17.35
2023-04-17T13:52:46.549Z,17.88
2023-04-17T13:55:14.788Z,18.05
2023-04-17T13:57:41.631Z,17.65
2023-04-17T14:00:09.119Z,17.02
2023-04-17T14:02:36.502Z,17.45
2023-04-17T14:05:03.677Z,17.30
2023-04-17T14:07:31.040Z,16.45
2023-04-17T14:09:57.810Z,16.30
2023-04-17T14:12:24.803Z,15.32
2023-04-17T14:14:51.603Z,16.42
2023-04-17T14:17:18.506Z,16.60
2023-04-17T14:19:45.477Z,17.20
2023-04-17T14:22:12.370Z,17.92
2023-04-17T14:24:39.532Z,17.63
2023-04-17T14:27:06.373Z,18.83
2023-04-17T14:29:33.325Z,17.08
2023-04-17T14:32:00.120Z,16.20
2023-04-17T14:34:27.428Z,17.13
2023-04-17T14:36:56.203Z,17.63
2023-04-17T14:39:24.438Z,17.02
2023-04-17T14:41:52.604Z,17.38
2023-04-17T14:44:30.429Z,17.15
2023-04-17T14:46:57.557Z,16.85
2023-04-17T14:49:24.768Z,17.63
2023-04-17T14:51:51.786Z,17.90
2023-04-17T14:54:18.738Z,19.02
2023-04-17T14:56:45.723Z,18.35
2023-04-17T14:59:12.727Z,17.90
2023-04-17T15:01:39.678Z,16.38
2023-04-17T15:04:06.888Z,18.25
2023-04-17T15:06:34.052Z,17.98
2023-04-17T15:09:00.961Z,18.05
2023-04-17T15:11:27.814Z,17.73
2023-04-17T15:13:54.716Z,18.75
2023-04-17T15:16:21.622Z,18.65
2023-04-17T15:18:48.579Z,19.55
2023-04-17T15:21:20.171Z,18.67
2023-04-17T15:23:47.185Z,18.90
2023-04-17T15:26:14.326Z,17.65
2023-04-17T15:28:41.297Z,18.00
2023-04-17T15:31:08.352Z,16.67
2023-04-17T15:33:36.120Z,17.80
2023-04-17T15:36:03.091Z,16.77
2023-04-17T15:38:30.003Z,16.17
2023-04-17T15:40:57.274Z,15.85
2023-04-17T15:43:24.435Z,15.48
2023-04-17T15:45:51.966Z,16.05
2023-04-17T15:48:19.319Z,14.65
2023-04-17T15:50:46.372Z,15.05
2023-04-17T15:53:13.446Z,14.35
2023-04-17T15:55:41.535Z,14.70
2023-04-17T15:58:08.554Z,14.98
2023-04-17T16:00:35.450Z,15.23
2023-04-17T16:03:02.430Z,15.57
2023-04-17T16:05:30.529Z,15.75
2023-04-17T16:07:58.704Z,16.05
2023-04-17T16:10:25.638Z,15.45
2023-04-17T16:12:52.477Z,14.90
2023-04-17T16:15:19.354Z,14.50
2023-04-17T16:17:48.717Z,14.20
2023-04-17T16:20:16.213Z,14.05
2023-04-17T16:22:43.148Z,14.55
2023-04-17T16:25:12.194Z,14.50
2023-04-17T16:27:40.260Z,14.50
2023-04-17T16:30:08.680Z,13.60
2023-04-17T16:32:35.632Z,13.45
2023-04-17T16:35:02.475Z,12.93
2023-04-17T16:37:29.364Z,12.68
2023-04-17T16:39:56.348Z,12.93
2023-04-17T16:42:24.195Z,12.13
2023-04-17T16:44:51.051Z,11.57
2023-04-17T16:47:17.996Z,11.10
2023-04-17T16:49:44.880Z,10.45
2023-04-17T16:52:11.917Z,10.80
2023-04-17T16:54:38.843Z,9.95
2023-04-17T16:57:08.404Z,10.10
2023-04-17T16:59:35.291Z,10.35
2023-04-17T17:02:02.462Z,10.10
2023-04-17T17:04:30.104Z,9.90
2023-04-17T17:06:57.487Z,8.40
2023-04-17T17:09:25.258Z,8.70
2023-04-17T17:11:52.138Z,9.35
2023-04-17T17:14:19.168Z,8.65
2023-04-17T17:16:46.015Z,8.90
2023-04-17T17:19:13.172Z,9.10
2023-04-17T17:21:40.442Z,8.85
2023-04-17T17:24:07.551Z,9.50
2023-04-17T17:26:34.361Z,8.68
2023-04-17T17:29:01.341Z,9.02
2023-04-17T17:31:28.258Z,8.65
2023-04-17T17:33:55.879Z,8.32
2023-04-17T17:36:22.915Z,8.55
2023-04-17T17:38:55.884Z,8.48
2023-04-17T17:41:24.024Z,8.73
2023-04-17T17:43:50.998Z,8.38
2023-04-17T17:46:19.449Z,8.38
2023-04-17T17:48:46.382Z,8.15
2023-04-17T17:51:13.259Z,8.25
2023-04-17T17:53:41.152Z,8.65
2023-04-17T17:56:08.272Z,8.90
2023-04-17T17:58:36.900Z,7.93
2023-04-17T18:01:03.766Z,8.90
2023-04-17T18:03:30.969Z,8.13
2023-04-17T18:05:58.149Z,8.20
2023-04-17T18:08:24.938Z,8.88
2023-04-17T18:10:52.144Z,8.32
2023-04-17T18:13:19.169Z,8.45
2023-04-17T18:15:46.027Z,9.75
2023-04-17T18:18:14.347Z,9.18
2023-04-17T18:20:41.275Z,9.85
2023-04-17T18:23:08.121Z,9.38
2023-04-17T18:25:39.274Z,9.50
2023-04-17T18:28:06.865Z,12.10
2023-04-17T18:30:33.698Z,13.05
2023-04-17T18:33:00.736Z,14.20
2023-04-17T18:35:27.668Z,14.57
2023-04-17T18:37:54.527Z,14.65
2023-04-17T18:40:21.604Z,14.23
2023-04-17T18:42:48.518Z,16.08
2023-04-17T18:45:16.194Z,15.35
2023-04-17T18:47:43.459Z,17.20
2023-04-17T18:50:12.037Z,17.75
2023-04-17T18:52:45.042Z,20.30
2023-04-17T18:55:15.550Z,20.15
2023-04-17T18:57:42.454Z,19.75
2023-04-17T19:00:09.800Z,20.25
2023-04-17T19:02:37.208Z,20.17
2023-04-17T19:05:04.653Z,20.52
2023-04-17T19:07:31.497Z,20.63
2023-04-17T19:09:58.320Z,21.75
2023-04-17T19:12:25.151Z,21.95
2023-04-17T19:14:52.221Z,21.55
2023-04-17T19:17:19.123Z,21.30
2023-04-17T19:19:46.194Z,21.67
2023-04-17T19:22:15.866Z,22.27
2023-04-17T19:24:42.964Z,22.67
2023-04-17T19:27:09.936Z,22.15
2023-04-17T19:29:37.136Z,23.30
2023-04-17T19:32:04.260Z,23.13
2023-04-17T19:34:31.140Z,23.35
2023-04-17T19:36:58.007Z,23.25
2023-04-17T19:39:26.921Z,23.80
2023-04-17T19:41:53.795Z,21.92
2023-04-17T19:44:20.739Z,22.80
2023-04-17T19:46:47.872Z,21.90
2023-04-17T19:49:15.777Z,22.42
2023-04-17T19:51:42.913Z,21.08
2023-04-17T19:54:12.154Z,22.05
2023-04-17T19:56:39.612Z,21.30
2023-04-17T19:59:06.552Z,20.83
2023-04-17T20:01:33.853Z,21.30
2023-04-17T20:04:00.909Z,20.80
2023-04-17T20:06:27.854Z,21.20
2023-04-17T20:08:56.491Z,21.13
2023-04-17T20:11:24.052Z,20.70
2023-04-17T20:13:52.327Z,20.25
2023-04-17T20:16:19.258Z,20.48
2023-04-17T20:18:46.259Z,21.23
2023-04-17T20:21:13.948Z,20.70
2023-04-17T20:23:41.271Z,19.33
2023-04-17T20:26:08.241Z,20.10
2023-04-17T20:28:35.085Z,19.98
2023-04-17T20:31:03.525Z,20.63
2023-04-17T20:33:30.885Z,20.58
2023-04-17T20:35:58.218Z,19.45
2023-04-17T20:38:25.752Z,19.92
2023-04-17T20:40:52.688Z,20.20
2023-04-17T20:43:19.701Z,20.02
2023-04-17T20:45:48.377Z,20.23
2023-04-17T20:48:15.319Z,20.23
2023-04-17T20:50:42.844Z,19.55
2023-04-17T20:53:09.852Z,20.75
2023-04-17T20:55:38.202Z,19.63
2023-04-17T20:58:05.049Z,20.25
2023-04-17T21:00:32.623Z,21.02
2023-04-17T21:02:59.653Z,19.40
2023-04-17T21:05:27.171Z,21.00
2023-04-17T21:07:54.554Z,19.85
2023-04-17T21:10:21.667Z,20.25
2023-04-17T21:12:48.558Z,20.88
2023-04-17T21:15:15.517Z,20.48
2023-04-17T21:17:46.717Z,21.67
2023-04-17T21:20:14.066Z,21.40
2023-04-17T21:22:40.972Z,22.58
2023-04-17T21:25:08.447Z,22.27
2023-04-17T21:27:35.427Z,22.30
2023-04-17T21:30:02.674Z,22.55
2023-04-17T21:32:29.630Z,22.33
2023-04-17T21:34:56.559Z,21.88
2023-04-17T21:37:23.405Z,21.90
2023-04-17T21:39:50.316Z,23.10
2023-04-17T21:42:17.361Z,23.23
2023-04-17T21:44:44.520Z,23.75
2023-04-17T21:47:11.402Z,22.70
2023-04-17T21:49:38.268Z,22.83
2023-04-17T21:52:05.220Z,22.95
2023-04-17T21:54:33.048Z,23.02
2023-04-17T21:56:59.879Z,23.42
2023-04-17T21:59:26.666Z,24.05
2023-04-17T22:01:53.619Z,23.95
2023-04-17T22:04:20.663Z,23.80
2023-04-17T22:06:47.576Z,22.90
2023-04-17T22:09:14.898Z,23.15
2023-04-17T22:11:41.851Z,24.45
2023-04-17T22:14:08.985Z,26.23
2023-04-17T22:16:35.928Z,24.73
2023-04-17T22:19:02.796Z,24.60
2023-04-17T22:21:29.785Z,24.95
2023-04-17T22:23:56.644Z,24.48
2023-04-17T22:26:23.516Z,26.17
2023-04-17T22:28:50.411Z,24.95
2023-04-17T22:31:17.276Z,25.10
2023-04-17T22:33:44.343Z,25.10
2023-04-17T22:36:11.222Z,26.92
2023-04-17T22:38:37.993Z,25.90
2023-04-17T22:41:05.343Z,25.25
2023-04-17T22:43:32.268Z,25.00
2023-04-17T22:45:59.493Z,25.33
2023-04-17T22:48:27.920Z,24.98
2023-04-17T22:50:55.795Z,25.33
2023-04-17T22:53:23.068Z,26.00
2023-04-17T22:56:01.509Z,24.60
2023-04-17T22:58:29.762Z,26.98
2023-04-17T23:00:56.827Z,27.13
2023-04-17T23:03:23.809Z,27.02
2023-04-17T23:05:52.881Z,26.83
2023-04-17T23:08:19.820Z,28.23
2023-04-17T23:10:46.918Z,28.25
2023-04-17T23:13:13.769Z,27.70
2023-04-17T23:15:41.086Z,28.33
2023-04-17T23:18:08.044Z,28.13
2023-04-17T23:20:35.028Z,28.20
2023-04-17T23:23:04.963Z,28.27
2023-04-17T23:25:31.873Z,29.50
2023-04-17T23:27:59.252Z,28.20
2023-04-17T23:30:26.251Z,28.45
2023-04-17T23:32:54.990Z,29.25
2023-04-17T23:35:25.086Z,30.10
2023-04-17T23:37:51.979Z,29.73
2023-04-17T23:40:18.823Z,29.33
2023-04-17T23:42:46.051Z,29.33
2023-04-17T23:45:12.892Z,29.52
2023-04-17T23:47:39.928Z,30.73
2023-04-17T23:50:07.581Z,30.10
2023-04-17T23:52:34.323Z,31.85
2023-04-17T23:55:01.605Z,30.83
2023-04-17T23:57:28.458Z,30.23
2023-04-17T23:59:55.676Z,29.65
